sensor_id;sensor_type;location;lat;lon;timestamp;temperature;humidity
1800;DHT22;919;48.274;12.292;2023-03-15T00:00:31;4.70;99.90
1800;DHT22;919;48.274;12.292;2023-03-15T00:02:59;4.70;99.90
1800;DHT22;919;48.274;12.292;2023-03-15T00:05:28;4.60;99.90
1800;DHT22;919;48.274;12.292;2023-03-15T00:07:56;4.60;99.90
1800;DHT22;919;48.274;12.292;2023-03-15T00:10:23;4.60;99.90
1800;DHT22;919;48.274;12.292;2023-03-15T00:12:49;4.60;99.90
1800;DHT22;919;48.274;12.292;2023-03-15T00:15:16;4.60;99.90
1800;DHT22;919;48.274;12.292;2023-03-15T00:17:43;4.50;99.90
1800;DHT22;919;48.274;12.292;2023-03-15T00:20:12;4.50;99.90
1800;DHT22;919;48.274;12.292;2023-03-15T00:22:40;4.40;99.90
1800;DHT22;919;48.274;12.292;2023-03-15T00:25:08;4.40;99.90
1800;DHT22;919;48.274;12.292;2023-03-15T00:27:35;4.40;99.90
1800;DHT22;919;48.274;12.292;2023-03-15T00:30:02;4.50;99.90
1800;DHT22;919;48.274;12.292;2023-03-15T00:32:28;4.50;99.90
1800;DHT22;919;48.274;12.292;2023-03-15T00:34:56;4.50;99.90
1800;DHT22;919;48.274;12.292;2023-03-15T00:37:24;4.60;99.90
1800;DHT22;919;48.274;12.292;2023-03-15T00:39:51;4.60;99.90
1800;DHT22;919;48.274;12.292;2023-03-15T00:42:20;4.60;99.90
1800;DHT22;919;48.274;12.292;2023-03-15T00:44:52;4.70;99.90
1800;DHT22;919;48.274;12.292;2023-03-15T00:47:19;4.70;99.90
1800;DHT22;919;48.274;12.292;2023-03-15T00:49:45;4.80;99.90
1800;DHT22;919;48.274;12.292;2023-03-15T00:52:12;4.80;99.90
1800;DHT22;919;48.274;12.292;2023-03-15T00:54:40;4.80;99.90
1800;DHT22;919;48.274;12.292;2023-03-15T00:57:08;4.80;99.90
1800;DHT22;919;48.274;12.292;2023-03-15T00:59:34;4.80;99.90
1800;DHT22;919;48.274;12.292;2023-03-15T01:02:01;4.80;99.90
1800;DHT22;919;48.274;12.292;2023-03-15T01:04:28;4.80;99.90
1800;DHT22;919;48.274;12.292;2023-03-15T01:06:56;4.80;99.90
1800;DHT22;919;48.274;12.292;2023-03-15T01:09:23;4.90;99.90
1800;DHT22;919;48.274;12.292;2023-03-15T01:11:51;4.90;99.90
1800;DHT22;919;48.274;12.292;2023-03-15T01:14:18;4.80;99.90
1800;DHT22;919;48.274;12.292;2023-03-15T01:16:44;4.80;99.90
1800;DHT22;919;48.274;12.292;2023-03-15T01:19:12;4.80;99.90
1800;DHT22;919;48.274;12.292;2023-03-15T01:21:39;4.80;99.90
1800;DHT22;919;48.274;12.292;2023-03-15T01:24:06;4.80;99.90
1800;DHT22;919;48.274;12.292;2023-03-15T01:26:33;4.70;99.90
1800;DHT22;919;48.274;12.292;2023-03-15T01:29:01;4.60;99.90
1800;DHT22;919;48.274;12.292;2023-03-15T01:31:29;4.60;99.90
1800;DHT22;919;48.274;12.292;2023-03-15T01:33:56;4.50;99.90
1800;DHT22;919;48.274;12.292;2023-03-15T01:36:23;4.40;99.90
1800;DHT22;919;48.274;12.292;2023-03-15T01:38:50;4.20;99.90
1800;DHT22;919;48.274;12.292;2023-03-15T01:41:19;4.20;99.90
1800;DHT22;919;48.274;12.292;2023-03-15T01:43:47;4.10;99.90
1800;DHT22;919;48.274;12.292;2023-03-15T01:46:21;4.00;99.90
1800;DHT22;919;48.274;12.292;2023-03-15T01:48:52;3.90;99.90
1800;DHT22;919;48.274;12.292;2023-03-15T01:51:23;3.80;99.90
1800;DHT22;919;48.274;12.292;2023-03-15T01:53:54;3.60;99.90
1800;DHT22;919;48.274;12.292;2023-03-15T01:56:23;3.50;99.90
1800;DHT22;919;48.274;12.292;2023-03-15T01:58:51;3.30;99.90
1800;DHT22;919;48.274;12.292;2023-03-15T02:01:20;3.20;99.90
1800;DHT22;919;48.274;12.292;2023-03-15T02:03:52;3.10;99.90
1800;DHT22;919;48.274;12.292;2023-03-15T02:06:22;3.00;99.90
1800;DHT22;919;48.274;12.292;2023-03-15T02:08:51;3.00;99.90
1800;DHT22;919;48.274;12.292;2023-03-15T02:11:20;3.00;99.90
1800;DHT22;919;48.274;12.292;2023-03-15T02:13:48;3.00;99.90
1800;DHT22;919;48.274;12.292;2023-03-15T02:16:15;2.90;99.90
1800;DHT22;919;48.274;12.292;2023-03-15T02:18:43;2.90;99.90
1800;DHT22;919;48.274;12.292;2023-03-15T02:21:18;2.90;99.90
1800;DHT22;919;48.274;12.292;2023-03-15T02:23:50;2.80;99.90
1800;DHT22;919;48.274;12.292;2023-03-15T02:26:23;2.90;99.90
1800;DHT22;919;48.274;12.292;2023-03-15T02:28:53;2.90;99.90
1800;DHT22;919;48.274;12.292;2023-03-15T02:31:20;2.90;99.90
1800;DHT22;919;48.274;12.292;2023-03-15T02:33:49;2.90;99.90
1800;DHT22;919;48.274;12.292;2023-03-15T02:36:18;2.80;99.90
1800;DHT22;919;48.274;12.292;2023-03-15T02:38:45;2.90;99.90
1800;DHT22;919;48.274;12.292;2023-03-15T02:41:15;2.90;99.90
1800;DHT22;919;48.274;12.292;2023-03-15T02:43:44;2.90;99.90
1800;DHT22;919;48.274;12.292;2023-03-15T02:46:14;2.90;99.90
1800;DHT22;919;48.274;12.292;2023-03-15T02:48:41;2.90;99.90
1800;DHT22;919;48.274;12.292;2023-03-15T02:51:16;3.00;99.90
1800;DHT22;919;48.274;12.292;2023-03-15T02:53:45;3.00;99.90
1800;DHT22;919;48.274;12.292;2023-03-15T02:56:11;3.00;99.90
1800;DHT22;919;48.274;12.292;2023-03-15T02:58:39;3.00;99.90
1800;DHT22;919;48.274;12.292;2023-03-15T03:01:06;3.00;99.90
1800;DHT22;919;48.274;12.292;2023-03-15T03:03:35;3.00;99.90
1800;DHT22;919;48.274;12.292;2023-03-15T03:06:02;2.90;99.90
1800;DHT22;919;48.274;12.292;2023-03-15T03:08:29;3.10;99.90
1800;DHT22;919;48.274;12.292;2023-03-15T03:10:55;3.00;99.90
1800;DHT22;919;48.274;12.292;2023-03-15T03:13:22;3.00;99.90
1800;DHT22;919;48.274;12.292;2023-03-15T03:15:49;3.10;99.90
1800;DHT22;919;48.274;12.292;2023-03-15T03:18:23;3.00;99.90
1800;DHT22;919;48.274;12.292;2023-03-15T03:20:54;3.00;99.90
1800;DHT22;919;48.274;12.292;2023-03-15T03:23:22;3.10;99.90
1800;DHT22;919;48.274;12.292;2023-03-15T03:25:50;3.10;99.90
1800;DHT22;919;48.274;12.292;2023-03-15T03:28:18;3.10;99.90
1800;DHT22;919;48.274;12.292;2023-03-15T03:30:45;3.10;99.90
1800;DHT22;919;48.274;12.292;2023-03-15T03:33:11;3.20;99.90
1800;DHT22;919;48.274;12.292;2023-03-15T03:35:38;3.10;99.90
1800;DHT22;919;48.274;12.292;2023-03-15T03:38:07;3.20;99.90
1800;DHT22;919;48.274;12.292;2023-03-15T03:40:34;3.20;99.90
1800;DHT22;919;48.274;12.292;2023-03-15T03:43:01;3.10;99.90
1800;DHT22;919;48.274;12.292;2023-03-15T03:45:27;3.00;99.90
1800;DHT22;919;48.274;12.292;2023-03-15T03:47:54;3.00;99.90
1800;DHT22;919;48.274;12.292;2023-03-15T03:50:21;2.90;99.90
1800;DHT22;919;48.274;12.292;2023-03-15T03:52:48;2.90;99.90
1800;DHT22;919;48.274;12.292;2023-03-15T03:55:16;2.80;99.90
1800;DHT22;919;48.274;12.292;2023-03-15T03:57:42;2.60;99.90
1800;DHT22;919;48.274;12.292;2023-03-15T04:00:12;2.50;99.90
1800;DHT22;919;48.274;12.292;2023-03-15T04:02:39;2.40;99.90
1800;DHT22;919;48.274;12.292;2023-03-15T04:05:08;2.40;99.90
1800;DHT22;919;48.274;12.292;2023-03-15T04:07:35;2.30;99.90
1800;DHT22;919;48.274;12.292;2023-03-15T04:10:03;2.40;99.90
1800;DHT22;919;48.274;12.292;2023-03-15T04:12:31;2.40;99.90
1800;DHT22;919;48.274;12.292;2023-03-15T04:14:58;2.30;99.90
1800;DHT22;919;48.274;12.292;2023-03-15T04:17:25;2.30;99.90
1800;DHT22;919;48.274;12.292;2023-03-15T04:19:51;2.30;99.90
1800;DHT22;919;48.274;12.292;2023-03-15T04:22:18;2.30;99.90
1800;DHT22;919;48.274;12.292;2023-03-15T04:24:45;2.40;99.90
1800;DHT22;919;48.274;12.292;2023-03-15T04:27:15;2.40;99.90
1800;DHT22;919;48.274;12.292;2023-03-15T04:29:43;2.40;99.90
1800;DHT22;919;48.274;12.292;2023-03-15T04:32:10;2.40;99.90
1800;DHT22;919;48.274;12.292;2023-03-15T04:34:37;2.40;99.90
1800;DHT22;919;48.274;12.292;2023-03-15T04:37:04;2.40;99.90
1800;DHT22;919;48.274;12.292;2023-03-15T04:39:31;2.40;99.90
1800;DHT22;919;48.274;12.292;2023-03-15T04:41:57;2.40;99.90
1800;DHT22;919;48.274;12.292;2023-03-15T04:44:24;2.40;99.90
1800;DHT22;919;48.274;12.292;2023-03-15T04:46:53;2.40;99.90
1800;DHT22;919;48.274;12.292;2023-03-15T04:49:20;2.40;99.90
1800;DHT22;919;48.274;12.292;2023-03-15T04:51:47;2.50;99.90
1800;DHT22;919;48.274;12.292;2023-03-15T04:54:14;2.50;99.90
1800;DHT22;919;48.274;12.292;2023-03-15T04:56:40;2.50;99.90
1800;DHT22;919;48.274;12.292;2023-03-15T04:59:07;2.50;99.90
1800;DHT22;919;48.274;12.292;2023-03-15T05:01:35;2.50;99.90
1800;DHT22;919;48.274;12.292;2023-03-15T05:04:03;2.50;99.90
1800;DHT22;919;48.274;12.292;2023-03-15T05:06:30;2.40;99.90
1800;DHT22;919;48.274;12.292;2023-03-15T05:08:56;2.40;99.90
1800;DHT22;919;48.274;12.292;2023-03-15T05:11:23;2.40;99.90
1800;DHT22;919;48.274;12.292;2023-03-15T05:13:50;2.40;99.90
1800;DHT22;919;48.274;12.292;2023-03-15T05:16:16;2.40;99.90
1800;DHT22;919;48.274;12.292;2023-03-15T05:18:43;2.40;99.90
1800;DHT22;919;48.274;12.292;2023-03-15T05:21:11;2.30;99.90
1800;DHT22;919;48.274;12.292;2023-03-15T05:23:38;2.30;99.90
1800;DHT22;919;48.274;12.292;2023-03-15T05:26:05;2.20;99.90
1800;DHT22;919;48.274;12.292;2023-03-15T05:28:31;2.20;99.90
1800;DHT22;919;48.274;12.292;2023-03-15T05:30:58;2.20;99.90
1800;DHT22;919;48.274;12.292;2023-03-15T05:33:27;2.30;99.90
1800;DHT22;919;48.274;12.292;2023-03-15T05:35:53;2.20;99.90
1800;DHT22;919;48.274;12.292;2023-03-15T05:38:22;2.20;99.90
1800;DHT22;919;48.274;12.292;2023-03-15T05:40:51;2.20;99.90
1800;DHT22;919;48.274;12.292;2023-03-15T05:43:18;2.10;99.90
1800;DHT22;919;48.274;12.292;2023-03-15T05:45:45;2.20;99.90
1800;DHT22;919;48.274;12.292;2023-03-15T05:48:13;2.30;99.90
1800;DHT22;919;48.274;12.292;2023-03-15T05:50:39;2.30;99.90
1800;DHT22;919;48.274;12.292;2023-03-15T05:53:06;2.30;99.90
1800;DHT22;919;48.274;12.292;2023-03-15T05:55:34;2.30;99.90
1800;DHT22;919;48.274;12.292;2023-03-15T05:58:01;2.40;99.90
1800;DHT22;919;48.274;12.292;2023-03-15T06:00:28;2.40;99.90
1800;DHT22;919;48.274;12.292;2023-03-15T06:02:55;2.40;99.90
1800;DHT22;919;48.274;12.292;2023-03-15T06:05:21;2.50;99.90
1800;DHT22;919;48.274;12.292;2023-03-15T06:07:48;2.50;99.90
1800;DHT22;919;48.274;12.292;2023-03-15T06:10:15;2.50;99.90
1800;DHT22;919;48.274;12.292;2023-03-15T06:12:43;2.50;99.90
1800;DHT22;919;48.274;12.292;2023-03-15T06:15:10;2.60;99.90
1800;DHT22;919;48.274;12.292;2023-03-15T06:17:37;2.70;99.90
1800;DHT22;919;48.274;12.292;2023-03-15T06:20:04;2.70;99.90
1800;DHT22;919;48.274;12.292;2023-03-15T06:22:31;2.70;99.90
1800;DHT22;919;48.274;12.292;2023-03-15T06:24:58;2.70;99.90
1800;DHT22;919;48.274;12.292;2023-03-15T06:27:25;2.80;99.90
1800;DHT22;919;48.274;12.292;2023-03-15T06:29:53;2.80;99.90
1800;DHT22;919;48.274;12.292;2023-03-15T06:32:20;2.90;99.90
1800;DHT22;919;48.274;12.292;2023-03-15T06:34:47;2.80;99.90
1800;DHT22;919;48.274;12.292;2023-03-15T06:37:14;2.90;99.90
1800;DHT22;919;48.274;12.292;2023-03-15T06:39:41;2.70;99.90
1800;DHT22;919;48.274;12.292;2023-03-15T06:42:09;2.60;99.90
1800;DHT22;919;48.274;12.292;2023-03-15T06:44:37;2.50;99.90
1800;DHT22;919;48.274;12.292;2023-03-15T06:47:06;2.30;99.90
1800;DHT22;919;48.274;12.292;2023-03-15T06:49:33;2.20;99.90
1800;DHT22;919;48.274;12.292;2023-03-15T06:52:00;2.20;99.90
1800;DHT22;919;48.274;12.292;2023-03-15T06:54:26;2.20;99.90
1800;DHT22;919;48.274;12.292;2023-03-15T06:56:53;2.20;99.90
1800;DHT22;919;48.274;12.292;2023-03-15T06:59:20;2.20;99.90
1800;DHT22;919;48.274;12.292;2023-03-15T07:01:47;2.30;99.90
1800;DHT22;919;48.274;12.292;2023-03-15T07:04:15;2.40;99.90
1800;DHT22;919;48.274;12.292;2023-03-15T07:06:42;2.40;99.90
1800;DHT22;919;48.274;12.292;2023-03-15T07:09:08;2.50;99.90
1800;DHT22;919;48.274;12.292;2023-03-15T07:11:35;2.50;99.90
1800;DHT22;919;48.274;12.292;2023-03-15T07:14:02;2.60;99.90
1800;DHT22;919;48.274;12.292;2023-03-15T07:16:28;2.60;99.90
1800;DHT22;919;48.274;12.292;2023-03-15T07:18:55;2.80;99.90
1800;DHT22;919;48.274;12.292;2023-03-15T07:21:25;2.80;99.90
1800;DHT22;919;48.274;12.292;2023-03-15T07:23:52;2.90;99.90
1800;DHT22;919;48.274;12.292;2023-03-15T07:26:19;3.10;99.90
1800;DHT22;919;48.274;12.292;2023-03-15T07:28:46;3.10;99.90
1800;DHT22;919;48.274;12.292;2023-03-15T07:31:13;3.20;99.90
1800;DHT22;919;48.274;12.292;2023-03-15T07:33:40;3.20;99.90
1800;DHT22;919;48.274;12.292;2023-03-15T07:36:07;3.10;99.90
1800;DHT22;919;48.274;12.292;2023-03-15T07:38:35;3.20;99.90
1800;DHT22;919;48.274;12.292;2023-03-15T07:41:03;3.30;99.90
1800;DHT22;919;48.274;12.292;2023-03-15T07:43:30;3.40;99.90
1800;DHT22;919;48.274;12.292;2023-03-15T07:45:57;3.50;99.90
1800;DHT22;919;48.274;12.292;2023-03-15T07:48:24;3.30;99.90
1800;DHT22;919;48.274;12.292;2023-03-15T07:50:50;3.10;99.90
1800;DHT22;919;48.274;12.292;2023-03-15T07:53:17;3.20;99.90
1800;DHT22;919;48.274;12.292;2023-03-15T07:55:47;3.20;99.90
1800;DHT22;919;48.274;12.292;2023-03-15T07:58:14;3.30;99.90
1800;DHT22;919;48.274;12.292;2023-03-15T08:00:41;3.40;99.90
1800;DHT22;919;48.274;12.292;2023-03-15T08:03:08;3.40;99.90
1800;DHT22;919;48.274;12.292;2023-03-15T08:05:35;3.50;99.90
1800;DHT22;919;48.274;12.292;2023-03-15T08:08:02;3.60;99.90
1800;DHT22;919;48.274;12.292;2023-03-15T08:10:28;3.60;99.90
1800;DHT22;919;48.274;12.292;2023-03-15T08:12:56;3.80;99.90
1800;DHT22;919;48.274;12.292;2023-03-15T08:15:23;4.00;99.90
1800;DHT22;919;48.274;12.292;2023-03-15T08:17:50;4.10;99.90
1800;DHT22;919;48.274;12.292;2023-03-15T08:20:17;4.20;99.90
1800;DHT22;919;48.274;12.292;2023-03-15T08:22:44;4.10;99.90
1800;DHT22;919;48.274;12.292;2023-03-15T08:25:12;4.20;99.90
1800;DHT22;919;48.274;12.292;2023-03-15T08:27:40;4.20;99.90
1800;DHT22;919;48.274;12.292;2023-03-15T08:30:10;4.20;99.90
1800;DHT22;919;48.274;12.292;2023-03-15T08:32:37;4.20;99.90
1800;DHT22;919;48.274;12.292;2023-03-15T08:35:05;4.20;99.90
1800;DHT22;919;48.274;12.292;2023-03-15T08:37:32;4.20;99.90
1800;DHT22;919;48.274;12.292;2023-03-15T08:39:59;4.10;99.90
1800;DHT22;919;48.274;12.292;2023-03-15T08:42:35;4.00;99.90
1800;DHT22;919;48.274;12.292;2023-03-15T08:45:03;4.10;99.90
1800;DHT22;919;48.274;12.292;2023-03-15T08:47:33;4.10;99.90
1800;DHT22;919;48.274;12.292;2023-03-15T08:50:00;4.10;99.90
1800;DHT22;919;48.274;12.292;2023-03-15T08:52:30;4.20;99.90
1800;DHT22;919;48.274;12.292;2023-03-15T08:54:57;4.20;99.90
1800;DHT22;919;48.274;12.292;2023-03-15T08:57:24;4.30;99.90
1800;DHT22;919;48.274;12.292;2023-03-15T08:59:51;4.70;99.90
1800;DHT22;919;48.274;12.292;2023-03-15T09:02:18;4.90;99.90
1800;DHT22;919;48.274;12.292;2023-03-15T09:04:48;5.10;99.90
1800;DHT22;919;48.274;12.292;2023-03-15T09:07:15;5.20;99.90
1800;DHT22;919;48.274;12.292;2023-03-15T09:09:41;5.10;99.90
1800;DHT22;919;48.274;12.292;2023-03-15T09:12:12;4.80;99.90
1800;DHT22;919;48.274;12.292;2023-03-15T09:14:39;4.70;99.90
1800;DHT22;919;48.274;12.292;2023-03-15T09:17:06;4.70;99.90
1800;DHT22;919;48.274;12.292;2023-03-15T09:19:33;4.80;99.90
1800;DHT22;919;48.274;12.292;2023-03-15T09:22:01;4.60;99.90
1800;DHT22;919;48.274;12.292;2023-03-15T09:24:28;4.40;99.90
1800;DHT22;919;48.274;12.292;2023-03-15T09:26:55;4.50;99.90
1800;DHT22;919;48.274;12.292;2023-03-15T09:29:21;4.70;99.90
1800;DHT22;919;48.274;12.292;2023-03-15T09:31:48;4.70;99.90
1800;DHT22;919;48.274;12.292;2023-03-15T09:34:15;4.80;99.90
1800;DHT22;919;48.274;12.292;2023-03-15T09:36:42;4.70;99.90
1800;DHT22;919;48.274;12.292;2023-03-15T09:39:10;4.70;99.90
1800;DHT22;919;48.274;12.292;2023-03-15T09:41:41;4.80;99.90
1800;DHT22;919;48.274;12.292;2023-03-15T09:44:15;5.20;99.90
1800;DHT22;919;48.274;12.292;2023-03-15T09:46:56;5.70;99.90
1800;DHT22;919;48.274;12.292;2023-03-15T09:49:33;5.80;99.90
1800;DHT22;919;48.274;12.292;2023-03-15T09:52:11;5.60;99.90
1800;DHT22;919;48.274;12.292;2023-03-15T09:54:44;5.50;99.90
1800;DHT22;919;48.274;12.292;2023-03-15T09:57:15;5.40;99.90
1800;DHT22;919;48.274;12.292;2023-03-15T09:59:46;5.80;99.90
1800;DHT22;919;48.274;12.292;2023-03-15T10:02:18;6.20;99.90
1800;DHT22;919;48.274;12.292;2023-03-15T10:04:48;6.10;99.90
1800;DHT22;919;48.274;12.292;2023-03-15T10:07:17;6.00;99.90
1800;DHT22;919;48.274;12.292;2023-03-15T10:09:45;5.70;99.90
1800;DHT22;919;48.274;12.292;2023-03-15T10:12:14;5.20;99.90
1800;DHT22;919;48.274;12.292;2023-03-15T10:14:59;4.90;99.90
1800;DHT22;919;48.274;12.292;2023-03-15T10:17:32;4.90;99.90
1800;DHT22;919;48.274;12.292;2023-03-15T10:20:05;5.20;99.90
1800;DHT22;919;48.274;12.292;2023-03-15T10:22:37;5.40;99.90
1800;DHT22;919;48.274;12.292;2023-03-15T10:25:13;5.60;99.90
1800;DHT22;919;48.274;12.292;2023-03-15T10:27:42;5.70;99.90
1800;DHT22;919;48.274;12.292;2023-03-15T10:30:17;5.50;99.90
1800;DHT22;919;48.274;12.292;2023-03-15T10:32:48;5.60;99.90
1800;DHT22;919;48.274;12.292;2023-03-15T10:35:18;5.40;99.90
1800;DHT22;919;48.274;12.292;2023-03-15T10:37:45;5.30;99.90
1800;DHT22;919;48.274;12.292;2023-03-15T10:40:14;5.20;99.90
1800;DHT22;919;48.274;12.292;2023-03-15T10:42:42;5.20;99.90
1800;DHT22;919;48.274;12.292;2023-03-15T10:45:19;5.30;99.90
1800;DHT22;919;48.274;12.292;2023-03-15T10:47:48;5.40;99.90
1800;DHT22;919;48.274;12.292;2023-03-15T10:50:25;5.20;99.90
1800;DHT22;919;48.274;12.292;2023-03-15T10:52:54;5.10;99.90
1800;DHT22;919;48.274;12.292;2023-03-15T10:55:30;5.50;99.90
1800;DHT22;919;48.274;12.292;2023-03-15T10:58:10;6.10;99.90
1800;DHT22;919;48.274;12.292;2023-03-15T11:00:37;6.50;99.90
1800;DHT22;919;48.274;12.292;2023-03-15T11:03:05;6.80;99.90
1800;DHT22;919;48.274;12.292;2023-03-15T11:05:39;6.60;99.90
1800;DHT22;919;48.274;12.292;2023-03-15T11:08:11;6.30;99.90
1800;DHT22;919;48.274;12.292;2023-03-15T11:10:41;6.00;99.90
1800;DHT22;919;48.274;12.292;2023-03-15T11:13:17;5.80;99.90
1800;DHT22;919;48.274;12.292;2023-03-15T11:15:52;6.00;99.90
1800;DHT22;919;48.274;12.292;2023-03-15T11:18:26;6.30;99.90
1800;DHT22;919;48.274;12.292;2023-03-15T11:20:55;6.80;99.90
1800;DHT22;919;48.274;12.292;2023-03-15T11:23:25;6.90;99.90
1800;DHT22;919;48.274;12.292;2023-03-15T11:25:54;7.00;99.90
1800;DHT22;919;48.274;12.292;2023-03-15T11:28:23;7.20;99.90
1800;DHT22;919;48.274;12.292;2023-03-15T11:30:52;7.40;99.90
1800;DHT22;919;48.274;12.292;2023-03-15T11:33:30;7.40;99.90
1800;DHT22;919;48.274;12.292;2023-03-15T11:36:00;7.20;99.90
1800;DHT22;919;48.274;12.292;2023-03-15T11:38:31;7.10;99.90
1800;DHT22;919;48.274;12.292;2023-03-15T11:41:04;7.30;99.90
1800;DHT22;919;48.274;12.292;2023-03-15T11:43:43;7.60;99.90
1800;DHT22;919;48.274;12.292;2023-03-15T11:46:20;8.10;99.90
1800;DHT22;919;48.274;12.292;2023-03-15T11:48:52;8.30;99.90
1800;DHT22;919;48.274;12.292;2023-03-15T11:51:21;8.40;99.90
1800;DHT22;919;48.274;12.292;2023-03-15T11:53:55;8.30;99.90
1800;DHT22;919;48.274;12.292;2023-03-15T11:56:45;8.40;99.90
1800;DHT22;919;48.274;12.292;2023-03-15T11:59:14;8.60;99.90
1800;DHT22;919;48.274;12.292;2023-03-15T12:01:45;8.50;99.90
1800;DHT22;919;48.274;12.292;2023-03-15T12:04:40;8.40;99.90
1800;DHT22;919;48.274;12.292;2023-03-15T12:07:30;8.40;99.90
1800;DHT22;919;48.274;12.292;2023-03-15T12:10:32;8.10;99.90
1800;DHT22;919;48.274;12.292;2023-03-15T12:13:06;7.70;99.90
1800;DHT22;919;48.274;12.292;2023-03-15T12:15:44;7.90;99.90
1800;DHT22;919;48.274;12.292;2023-03-15T12:18:18;8.10;99.90
1800;DHT22;919;48.274;12.292;2023-03-15T12:20:50;8.10;99.90
1800;DHT22;919;48.274;12.292;2023-03-15T12:23:30;7.70;99.90
1800;DHT22;919;48.274;12.292;2023-03-15T12:25:58;7.50;99.90
1800;DHT22;919;48.274;12.292;2023-03-15T12:28:34;7.40;99.90
1800;DHT22;919;48.274;12.292;2023-03-15T12:31:03;7.20;99.90
1800;DHT22;919;48.274;12.292;2023-03-15T12:33:41;7.30;99.90
1800;DHT22;919;48.274;12.292;2023-03-15T12:36:17;7.10;99.90
1800;DHT22;919;48.274;12.292;2023-03-15T12:38:57;7.40;99.90
1800;DHT22;919;48.274;12.292;2023-03-15T12:41:36;7.40;99.90
1800;DHT22;919;48.274;12.292;2023-03-15T12:44:25;7.40;99.90
1800;DHT22;919;48.274;12.292;2023-03-15T12:47:03;7.80;99.90
1800;DHT22;919;48.274;12.292;2023-03-15T12:49:36;7.80;99.90
1800;DHT22;919;48.274;12.292;2023-03-15T12:52:12;7.50;99.90
1800;DHT22;919;48.274;12.292;2023-03-15T12:54:43;7.90;99.90
1800;DHT22;919;48.274;12.292;2023-03-15T12:57:11;8.20;99.90
1800;DHT22;919;48.274;12.292;2023-03-15T12:59:48;8.30;99.90
1800;DHT22;919;48.274;12.292;2023-03-15T13:02:26;8.30;99.90
1800;DHT22;919;48.274;12.292;2023-03-15T13:05:09;8.00;99.90
1800;DHT22;919;48.274;12.292;2023-03-15T13:07:47;7.70;99.90
1800;DHT22;919;48.274;12.292;2023-03-15T13:10:36;7.50;99.90
1800;DHT22;919;48.274;12.292;2023-03-15T13:13:11;7.50;99.90
1800;DHT22;919;48.274;12.292;2023-03-15T13:15:43;7.20;99.90
1800;DHT22;919;48.274;12.292;2023-03-15T13:18:22;7.00;99.90
1800;DHT22;919;48.274;12.292;2023-03-15T13:21:04;6.90;99.90
1800;DHT22;919;48.274;12.292;2023-03-15T13:23:36;7.10;99.90
1800;DHT22;919;48.274;12.292;2023-03-15T13:26:16;7.10;99.90
1800;DHT22;919;48.274;12.292;2023-03-15T13:28:49;7.00;99.90
1800;DHT22;919;48.274;12.292;2023-03-15T13:31:22;7.10;99.90
1800;DHT22;919;48.274;12.292;2023-03-15T13:33:50;7.00;99.90
1800;DHT22;919;48.274;12.292;2023-03-15T13:36:22;7.10;99.90
1800;DHT22;919;48.274;12.292;2023-03-15T13:38:51;7.10;99.90
1800;DHT22;919;48.274;12.292;2023-03-15T13:41:20;7.20;99.90
1800;DHT22;919;48.274;12.292;2023-03-15T13:43:48;7.60;99.90
1800;DHT22;919;48.274;12.292;2023-03-15T13:46:17;7.90;99.90
1800;DHT22;919;48.274;12.292;2023-03-15T13:48:46;8.10;99.90
1800;DHT22;919;48.274;12.292;2023-03-15T13:51:18;8.10;99.90
1800;DHT22;919;48.274;12.292;2023-03-15T13:53:48;8.20;99.90
1800;DHT22;919;48.274;12.292;2023-03-15T13:56:17;8.10;99.90
1800;DHT22;919;48.274;12.292;2023-03-15T13:58:45;8.00;99.90
1800;DHT22;919;48.274;12.292;2023-03-15T14:01:14;8.00;99.90
1800;DHT22;919;48.274;12.292;2023-03-15T14:03:42;8.00;99.90
1800;DHT22;919;48.274;12.292;2023-03-15T14:06:22;7.90;99.90
1800;DHT22;919;48.274;12.292;2023-03-15T14:08:51;7.60;99.90
1800;DHT22;919;48.274;12.292;2023-03-15T14:11:31;7.40;99.90
1800;DHT22;919;48.274;12.292;2023-03-15T14:14:00;7.20;99.90
1800;DHT22;919;48.274;12.292;2023-03-15T14:16:31;7.10;99.90
1800;DHT22;919;48.274;12.292;2023-03-15T14:19:13;7.10;99.90
1800;DHT22;919;48.274;12.292;2023-03-15T14:21:42;7.20;99.90
1800;DHT22;919;48.274;12.292;2023-03-15T14:24:14;7.10;99.90
1800;DHT22;919;48.274;12.292;2023-03-15T14:26:42;7.20;99.90
1800;DHT22;919;48.274;12.292;2023-03-15T14:29:17;7.30;99.90
1800;DHT22;919;48.274;12.292;2023-03-15T14:31:47;7.40;99.90
1800;DHT22;919;48.274;12.292;2023-03-15T14:34:19;7.60;99.90
1800;DHT22;919;48.274;12.292;2023-03-15T14:36:51;7.70;99.90
1800;DHT22;919;48.274;12.292;2023-03-15T14:39:24;7.70;99.90
1800;DHT22;919;48.274;12.292;2023-03-15T14:41:51;7.50;99.90
1800;DHT22;919;48.274;12.292;2023-03-15T14:44:18;7.40;99.90
1800;DHT22;919;48.274;12.292;2023-03-15T14:46:45;7.30;99.90
1800;DHT22;919;48.274;12.292;2023-03-15T14:49:17;7.10;99.90
1800;DHT22;919;48.274;12.292;2023-03-15T14:51:45;7.00;99.90
1800;DHT22;919;48.274;12.292;2023-03-15T14:54:13;6.90;99.90
1800;DHT22;919;48.274;12.292;2023-03-15T14:56:40;6.80;99.90
1800;DHT22;919;48.274;12.292;2023-03-15T14:59:09;6.70;99.90
1800;DHT22;919;48.274;12.292;2023-03-15T15:01:39;6.70;99.90
1800;DHT22;919;48.274;12.292;2023-03-15T15:04:09;6.60;99.90
1800;DHT22;919;48.274;12.292;2023-03-15T15:06:37;6.50;99.90
1800;DHT22;919;48.274;12.292;2023-03-15T15:09:04;6.40;99.90
1800;DHT22;919;48.274;12.292;2023-03-15T15:11:32;6.40;99.90
1800;DHT22;919;48.274;12.292;2023-03-15T15:13:59;6.40;99.90
1800;DHT22;919;48.274;12.292;2023-03-15T15:16:26;6.30;99.90
1800;DHT22;919;48.274;12.292;2023-03-15T15:18:52;6.30;99.90
1800;DHT22;919;48.274;12.292;2023-03-15T15:21:22;6.30;99.90
1800;DHT22;919;48.274;12.292;2023-03-15T15:23:51;6.20;99.90
1800;DHT22;919;48.274;12.292;2023-03-15T15:26:20;6.20;99.90
1800;DHT22;919;48.274;12.292;2023-03-15T15:28:49;6.20;99.90
1800;DHT22;919;48.274;12.292;2023-03-15T15:31:17;6.20;99.90
1800;DHT22;919;48.274;12.292;2023-03-15T15:33:47;6.10;99.90
1800;DHT22;919;48.274;12.292;2023-03-15T15:36:17;6.10;99.90
1800;DHT22;919;48.274;12.292;2023-03-15T15:38:46;6.10;99.90
1800;DHT22;919;48.274;12.292;2023-03-15T15:41:15;6.00;99.90
1800;DHT22;919;48.274;12.292;2023-03-15T15:43:43;5.90;99.90
1800;DHT22;919;48.274;12.292;2023-03-15T15:46:11;5.70;99.90
1800;DHT22;919;48.274;12.292;2023-03-15T15:48:39;5.50;99.90
1800;DHT22;919;48.274;12.292;2023-03-15T15:51:20;5.50;99.90
1800;DHT22;919;48.274;12.292;2023-03-15T15:53:48;5.40;99.90
1800;DHT22;919;48.274;12.292;2023-03-15T15:56:15;5.30;99.90
1800;DHT22;919;48.274;12.292;2023-03-15T15:58:43;5.20;99.90
1800;DHT22;919;48.274;12.292;2023-03-15T16:01:13;5.10;99.90
1800;DHT22;919;48.274;12.292;2023-03-15T16:03:41;4.90;99.90
1800;DHT22;919;48.274;12.292;2023-03-15T16:06:15;4.90;99.90
1800;DHT22;919;48.274;12.292;2023-03-15T16:08:45;4.80;99.90
1800;DHT22;919;48.274;12.292;2023-03-15T16:11:14;4.70;99.90
1800;DHT22;919;48.274;12.292;2023-03-15T16:13:41;4.50;99.90
1800;DHT22;919;48.274;12.292;2023-03-15T16:16:12;4.50;99.90
1800;DHT22;919;48.274;12.292;2023-03-15T16:18:41;4.50;99.90
1800;DHT22;919;48.274;12.292;2023-03-15T16:21:13;4.50;99.90
1800;DHT22;919;48.274;12.292;2023-03-15T16:23:40;4.50;99.90
1800;DHT22;919;48.274;12.292;2023-03-15T16:26:11;4.50;99.90
1800;DHT22;919;48.274;12.292;2023-03-15T16:28:39;4.50;99.90
1800;DHT22;919;48.274;12.292;2023-03-15T16:31:06;4.40;99.90